sensor_id;sensor_type;location;lat;lon;timestamp;temperature;humidity
65396;HTU21D;52004;45.136;39.010;2023-06-10T00:00:34;21.33;58.73
65396;HTU21D;52004;45.136;39.010;2023-06-10T00:03:01;21.33;58.73
65396;HTU21D;52004;45.136;39.010;2023-06-10T00:05:27;21.34;58.71
65396;HTU21D;52004;45.136;39.010;2023-06-10T00:07:55;21.36;58.71
65396;HTU21D;52004;45.136;39.010;2023-06-10T00:10:22;21.34;58.71
65396;HTU21D;52004;45.136;39.010;2023-06-10T00:12:48;21.32;58.75
65396;HTU21D;52004;45.136;39.010;2023-06-10T00:15:13;21.30;58.78
65396;HTU21D;52004;45.136;39.010;2023-06-10T00:17:39;21.28;58.82
65396;HTU21D;52004;45.136;39.010;2023-06-10T00:20:07;21.25;58.87
65396;HTU21D;52004;45.136;39.010;2023-06-10T00:22:33;21.24;58.90
65396;HTU21D;52004;45.136;39.010;2023-06-10T00:24:59;21.23;58.95
65396;HTU21D;52004;45.136;39.010;2023-06-10T00:27:25;21.22;58.96
65396;HTU21D;52004;45.136;39.010;2023-06-10T00:29:56;21.23;58.96
65396;HTU21D;52004;45.136;39.010;2023-06-10T00:32:23;21.21;58.98
65396;HTU21D;52004;45.136;39.010;2023-06-10T00:34:49;21.22;58.99
65396;HTU21D;52004;45.136;39.010;2023-06-10T00:37:15;21.21;59.01
65396;HTU21D;52004;45.136;39.010;2023-06-10T00:39:42;21.22;59.00
65396;HTU21D;52004;45.136;39.010;2023-06-10T00:42:08;21.22;58.99
65396;HTU21D;52004;45.136;39.010;2023-06-10T00:44:36;21.22;59.00
65396;HTU21D;52004;45.136;39.010;2023-06-10T00:47:02;21.22;58.99
65396;HTU21D;52004;45.136;39.010;2023-06-10T00:49:29;21.22;58.97
65396;HTU21D;52004;45.136;39.010;2023-06-10T00:51:54;21.22;58.95
65396;HTU21D;52004;45.136;39.010;2023-06-10T00:54:20;21.20;58.94
65396;HTU21D;52004;45.136;39.010;2023-06-10T00:56:47;21.18;58.94
65396;HTU21D;52004;45.136;39.010;2023-06-10T00:59:13;21.19;58.94
65396;HTU21D;52004;45.136;39.010;2023-06-10T01:01:41;21.18;58.96
65396;HTU21D;52004;45.136;39.010;2023-06-10T01:04:08;21.17;58.97
65396;HTU21D;52004;45.136;39.010;2023-06-10T01:09:33;21.15;58.99
65396;HTU21D;52004;45.136;39.010;2023-06-10T01:14:55;21.13;58.98
65396;HTU21D;52004;45.136;39.010;2023-06-10T01:17:22;21.10;58.98
65396;HTU21D;52004;45.136;39.010;2023-06-10T01:19:55;21.09;59.00
65396;HTU21D;52004;45.136;39.010;2023-06-10T01:22:24;21.07;58.99
65396;HTU21D;52004;45.136;39.010;2023-06-10T01:24:52;21.05;59.01
65396;HTU21D;52004;45.136;39.010;2023-06-10T01:27:19;21.02;59.03
65396;HTU21D;52004;45.136;39.010;2023-06-10T01:29:46;21.01;59.05
65396;HTU21D;52004;45.136;39.010;2023-06-10T01:32:18;20.98;59.08
65396;HTU21D;52004;45.136;39.010;2023-06-10T01:34:45;20.96;59.09
65396;HTU21D;52004;45.136;39.010;2023-06-10T01:37:13;20.94;59.10
65396;HTU21D;52004;45.136;39.010;2023-06-10T01:39:39;20.92;59.12
65396;HTU21D;52004;45.136;39.010;2023-06-10T01:42:09;20.89;59.13
65396;HTU21D;52004;45.136;39.010;2023-06-10T01:44:35;20.87;59.16
65396;HTU21D;52004;45.136;39.010;2023-06-10T01:47:01;20.87;59.19
65396;HTU21D;52004;45.136;39.010;2023-06-10T01:49:27;20.86;59.19
65396;HTU21D;52004;45.136;39.010;2023-06-10T01:51:54;20.86;59.19
65396;HTU21D;52004;45.136;39.010;2023-06-10T01:54:20;20.86;59.19
65396;HTU21D;52004;45.136;39.010;2023-06-10T01:56:46;20.85;59.19
65396;HTU21D;52004;45.136;39.010;2023-06-10T01:59:12;20.86;59.20
65396;HTU21D;52004;45.136;39.010;2023-06-10T02:01:38;20.84;59.19
65396;HTU21D;52004;45.136;39.010;2023-06-10T02:04:03;20.84;59.20
65396;HTU21D;52004;45.136;39.010;2023-06-10T02:06:31;20.81;59.22
65396;HTU21D;52004;45.136;39.010;2023-06-10T02:08:57;20.83;59.22
65396;HTU21D;52004;45.136;39.010;2023-06-10T02:11:23;20.83;59.22
65396;HTU21D;52004;45.136;39.010;2023-06-10T02:13:49;20.83;59.22
65396;HTU21D;52004;45.136;39.010;2023-06-10T02:16:15;20.84;59.22
65396;HTU21D;52004;45.136;39.010;2023-06-10T02:18:42;20.85;59.19
65396;HTU21D;52004;45.136;39.010;2023-06-10T02:21:11;20.83;59.22
65396;HTU21D;52004;45.136;39.010;2023-06-10T02:23:37;20.83;59.25
65396;HTU21D;52004;45.136;39.010;2023-06-10T02:26:03;20.84;59.25
65396;HTU21D;52004;45.136;39.010;2023-06-10T02:28:29;20.83;59.23
65396;HTU21D;52004;45.136;39.010;2023-06-10T02:30:57;20.83;59.27
65396;HTU21D;52004;45.136;39.010;2023-06-10T02:33:25;20.84;59.28
65396;HTU21D;52004;45.136;39.010;2023-06-10T02:35:51;20.81;59.27
65396;HTU21D;52004;45.136;39.010;2023-06-10T02:38:17;20.79;59.30
65396;HTU21D;52004;45.136;39.010;2023-06-10T02:40:43;20.77;59.34
65396;HTU21D;52004;45.136;39.010;2023-06-10T02:43:11;20.77;59.35
65396;HTU21D;52004;45.136;39.010;2023-06-10T02:45:37;20.75;59.36
65396;HTU21D;52004;45.136;39.010;2023-06-10T02:48:04;20.74;59.41
65396;HTU21D;52004;45.136;39.010;2023-06-10T02:50:31;20.73;59.43
65396;HTU21D;52004;45.136;39.010;2023-06-10T02:53:20;20.72;59.45
65396;HTU21D;52004;45.136;39.010;2023-06-10T02:55:52;20.72;59.45
65396;HTU21D;52004;45.136;39.010;2023-06-10T02:58:19;20.73;59.45
65396;HTU21D;52004;45.136;39.010;2023-06-10T03:00:46;20.72;59.45
65396;HTU21D;52004;45.136;39.010;2023-06-10T03:03:14;20.69;59.48
65396;HTU21D;52004;45.136;39.010;2023-06-10T03:05:55;20.68;59.51
65396;HTU21D;52004;45.136;39.010;2023-06-10T03:08:23;20.66;59.57
65396;HTU21D;52004;45.136;39.010;2023-06-10T03:10:49;20.63;59.61
65396;HTU21D;52004;45.136;39.010;2023-06-10T03:13:17;20.63;59.66
65396;HTU21D;52004;45.136;39.010;2023-06-10T03:15:44;20.63;59.67
65396;HTU21D;52004;45.136;39.010;2023-06-10T03:18:15;20.61;59.72
65396;HTU21D;52004;45.136;39.010;2023-06-10T03:20:43;20.60;59.76
65396;HTU21D;52004;45.136;39.010;2023-06-10T03:23:10;20.62;59.78
65396;HTU21D;52004;45.136;39.010;2023-06-10T03:25:36;20.62;59.77
65396;HTU21D;52004;45.136;39.010;2023-06-10T03:28:03;20.64;59.77
65396;HTU21D;52004;45.136;39.010;2023-06-10T03:30:29;20.64;59.78
65396;HTU21D;52004;45.136;39.010;2023-06-10T03:32:55;20.66;59.79
65396;HTU21D;52004;45.136;39.010;2023-06-10T03:35:24;20.66;59.79
65396;HTU21D;52004;45.136;39.010;2023-06-10T03:37:50;20.66;59.80
65396;HTU21D;52004;45.136;39.010;2023-06-10T03:40:16;20.68;59.80
65396;HTU21D;52004;45.136;39.010;2023-06-10T03:42:45;20.68;59.81
65396;HTU21D;52004;45.136;39.010;2023-06-10T03:45:13;20.69;59.82
65396;HTU21D;52004;45.136;39.010;2023-06-10T03:47:39;20.69;59.86
65396;HTU21D;52004;45.136;39.010;2023-06-10T03:50:09;20.70;59.87
65396;HTU21D;52004;45.136;39.010;2023-06-10T03:52:37;20.71;59.88
65396;HTU21D;52004;45.136;39.010;2023-06-10T03:55:03;20.72;59.90
65396;HTU21D;52004;45.136;39.010;2023-06-10T03:57:30;20.72;59.92
65396;HTU21D;52004;45.136;39.010;2023-06-10T03:59:56;20.74;59.92
65396;HTU21D;52004;45.136;39.010;2023-06-10T04:02:22;20.76;59.94
65396;HTU21D;52004;45.136;39.010;2023-06-10T04:04:49;20.78;59.96
65396;HTU21D;52004;45.136;39.010;2023-06-10T04:07:14;20.78;59.98
65396;HTU21D;52004;45.136;39.010;2023-06-10T04:09:41;20.80;59.99
65396;HTU21D;52004;45.136;39.010;2023-06-10T04:12:06;20.79;60.02
65396;HTU21D;52004;45.136;39.010;2023-06-10T04:14:35;20.83;60.02
65396;HTU21D;52004;45.136;39.010;2023-06-10T04:17:02;20.85;60.01
65396;HTU21D;52004;45.136;39.010;2023-06-10T04:19:29;20.85;60.03
65396;HTU21D;52004;45.136;39.010;2023-06-10T04:21:57;20.85;60.08
65396;HTU21D;52004;45.136;39.010;2023-06-10T04:24:23;20.88;60.12
65396;HTU21D;52004;45.136;39.010;2023-06-10T04:26:49;20.89;60.18
65396;HTU21D;52004;45.136;39.010;2023-06-10T04:29:40;20.93;60.18
65396;HTU21D;52004;45.136;39.010;2023-06-10T04:32:07;20.94;60.19
65396;HTU21D;52004;45.136;39.010;2023-06-10T04:34:34;21.01;60.20
65396;HTU21D;52004;45.136;39.010;2023-06-10T04:37:00;21.06;60.20
65396;HTU21D;52004;45.136;39.010;2023-06-10T04:39:26;21.11;60.19
65396;HTU21D;52004;45.136;39.010;2023-06-10T04:41:52;21.17;60.18
65396;HTU21D;52004;45.136;39.010;2023-06-10T04:44:18;21.22;60.17
65396;HTU21D;52004;45.136;39.010;2023-06-10T04:46:44;21.28;60.16
65396;HTU21D;52004;45.136;39.010;2023-06-10T04:49:11;21.35;60.13
65396;HTU21D;52004;45.136;39.010;2023-06-10T04:51:40;21.40;60.12
65396;HTU21D;52004;45.136;39.010;2023-06-10T04:54:07;21.46;60.09
65396;HTU21D;52004;45.136;39.010;2023-06-10T04:56:33;21.53;60.08
65396;HTU21D;52004;45.136;39.010;2023-06-10T04:58:59;21.58;60.08
65396;HTU21D;52004;45.136;39.010;2023-06-10T05:01:25;21.62;60.04
65396;HTU21D;52004;45.136;39.010;2023-06-10T05:03:51;21.66;60.03
65396;HTU21D;52004;45.136;39.010;2023-06-10T05:06:17;21.73;60.05
65396;HTU21D;52004;45.136;39.010;2023-06-10T05:08:42;21.78;60.04
65396;HTU21D;52004;45.136;39.010;2023-06-10T05:11:08;21.85;60.04
65396;HTU21D;52004;45.136;39.010;2023-06-10T05:13:34;21.94;60.04
65396;HTU21D;52004;45.136;39.010;2023-06-10T05:16:00;22.03;60.01
65396;HTU21D;52004;45.136;39.010;2023-06-10T05:18:26;22.11;59.95
65396;HTU21D;52004;45.136;39.010;2023-06-10T05:20:52;22.18;59.90
65396;HTU21D;52004;45.136;39.010;2023-06-10T05:23:19;22.21;59.88
65396;HTU21D;52004;45.136;39.010;2023-06-10T05:25:45;22.24;59.83
65396;HTU21D;52004;45.136;39.010;2023-06-10T05:28:11;22.25;59.80
65396;HTU21D;52004;45.136;39.010;2023-06-10T05:30:37;22.26;59.83
65396;HTU21D;52004;45.136;39.010;2023-06-10T05:33:04;22.29;59.83
65396;HTU21D;52004;45.136;39.010;2023-06-10T05:35:30;22.31;59.81
65396;HTU21D;52004;45.136;39.010;2023-06-10T05:37:56;22.33;59.83
65396;HTU21D;52004;45.136;39.010;2023-06-10T05:40:22;22.37;59.84
65396;HTU21D;52004;45.136;39.010;2023-06-10T05:42:48;22.41;59.79
65396;HTU21D;52004;45.136;39.010;2023-06-10T05:45:14;22.41;59.80
65396;HTU21D;52004;45.136;39.010;2023-06-10T05:47:40;22.44;59.79
65396;HTU21D;52004;45.136;39.010;2023-06-10T05:50:06;22.46;59.79
65396;HTU21D;52004;45.136;39.010;2023-06-10T05:52:36;22.47;59.77
65396;HTU21D;52004;45.136;39.010;2023-06-10T05:55:02;22.49;59.77
65396;HTU21D;52004;45.136;39.010;2023-06-10T05:57:28;22.52;59.80
65396;HTU21D;52004;45.136;39.010;2023-06-10T05:59:54;22.54;59.77
65396;HTU21D;52004;45.136;39.010;2023-06-10T06:02:20;22.56;59.76
65396;HTU21D;52004;45.136;39.010;2023-06-10T06:04:46;22.57;59.76
65396;HTU21D;52004;45.136;39.010;2023-06-10T06:07:12;22.60;59.74
65396;HTU21D;52004;45.136;39.010;2023-06-10T06:09:38;22.63;59.72
65396;HTU21D;52004;45.136;39.010;2023-06-10T06:12:04;22.64;59.71
65396;HTU21D;52004;45.136;39.010;2023-06-10T06:14:32;22.64;59.70
65396;HTU21D;52004;45.136;39.010;2023-06-10T06:16:58;22.66;59.69
65396;HTU21D;52004;45.136;39.010;2023-06-10T06:19:24;22.65;59.67
65396;HTU21D;52004;45.136;39.010;2023-06-10T06:21:49;22.63;59.64
65396;HTU21D;52004;45.136;39.010;2023-06-10T06:24:15;22.62;59.68
65396;HTU21D;52004;45.136;39.010;2023-06-10T06:26:41;22.64;59.71
65396;HTU21D;52004;45.136;39.010;2023-06-10T06:29:07;22.65;59.73
65396;HTU21D;52004;45.136;39.010;2023-06-10T06:31:33;22.69;59.74
65396;HTU21D;52004;45.136;39.010;2023-06-10T06:33:59;22.73;59.73
65396;HTU21D;52004;45.136;39.010;2023-06-10T06:36:25;22.78;59.70
65396;HTU21D;52004;45.136;39.010;2023-06-10T06:38:51;22.81;59.70
65396;HTU21D;52004;45.136;39.010;2023-06-10T06:41:18;22.84;59.67
65396;HTU21D;52004;45.136;39.010;2023-06-10T06:43:45;22.87;59.65
65396;HTU21D;52004;45.136;39.010;2023-06-10T06:46:37;0.00;59.67
65396;HTU21D;52004;45.136;39.010;2023-06-10T06:49:03;22.95;59.68
65396;HTU21D;52004;45.136;39.010;2023-06-10T06:51:28;22.99;59.66
65396;HTU21D;52004;45.136;39.010;2023-06-10T06:53:55;23.05;59.67
65396;HTU21D;52004;45.136;39.010;2023-06-10T06:56:24;23.10;59.70
65396;HTU21D;52004;45.136;39.010;2023-06-10T06:58:52;23.17;59.73
65396;HTU21D;52004;45.136;39.010;2023-06-10T07:01:18;23.25;59.72
65396;HTU21D;52004;45.136;39.010;2023-06-10T07:03:44;23.36;59.71
65396;HTU21D;52004;45.136;39.010;2023-06-10T07:06:10;23.42;59.67
65396;HTU21D;52004;45.136;39.010;2023-06-10T07:08:36;23.50;59.57
65396;HTU21D;52004;45.136;39.010;2023-06-10T07:11:02;23.54;59.52
65396;HTU21D;52004;45.136;39.010;2023-06-10T07:13:28;23.58;59.53
65396;HTU21D;52004;45.136;39.010;2023-06-10T07:15:54;23.62;59.50
65396;HTU21D;52004;45.136;39.010;2023-06-10T07:18:23;23.68;59.49
65396;HTU21D;52004;45.136;39.010;2023-06-10T07:20:49;23.73;59.50
65396;HTU21D;52004;45.136;39.010;2023-06-10T07:23:16;23.77;59.48
65396;HTU21D;52004;45.136;39.010;2023-06-10T07:25:42;23.83;59.41
65396;HTU21D;52004;45.136;39.010;2023-06-10T07:28:08;23.86;59.40
65396;HTU21D;52004;45.136;39.010;2023-06-10T07:30:34;23.90;59.38
65396;HTU21D;52004;45.136;39.010;2023-06-10T07:33:00;23.95;59.37
65396;HTU21D;52004;45.136;39.010;2023-06-10T07:35:27;23.99;59.30
65396;HTU21D;52004;45.136;39.010;2023-06-10T07:37:53;23.98;59.22
65396;HTU21D;52004;45.136;39.010;2023-06-10T07:40:19;23.96;59.19
65396;HTU21D;52004;45.136;39.010;2023-06-10T07:42:45;23.96;59.28
65396;HTU21D;52004;45.136;39.010;2023-06-10T07:45:11;23.99;59.32
65396;HTU21D;52004;45.136;39.010;2023-06-10T07:47:37;24.05;59.34
65396;HTU21D;52004;45.136;39.010;2023-06-10T07:50:03;24.11;59.30
65396;HTU21D;52004;45.136;39.010;2023-06-10T07:52:29;24.16;59.28
65396;HTU21D;52004;45.136;39.010;2023-06-10T07:54:55;0.00;59.35
65396;HTU21D;52004;45.136;39.010;2023-06-10T07:57:21;24.32;59.26
65396;HTU21D;52004;45.136;39.010;2023-06-10T07:59:47;24.39;59.24
65396;HTU21D;52004;45.136;39.010;2023-06-10T08:02:13;0.00;59.16
65396;HTU21D;52004;45.136;39.010;2023-06-10T08:04:38;24.46;59.19
65396;HTU21D;52004;45.136;39.010;2023-06-10T08:07:04;24.51;59.14
65396;HTU21D;52004;45.136;39.010;2023-06-10T08:09:30;24.58;59.18
65396;HTU21D;52004;45.136;39.010;2023-06-10T08:11:56;24.69;59.26
65396;HTU21D;52004;45.136;39.010;2023-06-10T08:14:22;24.77;59.20
65396;HTU21D;52004;45.136;39.010;2023-06-10T08:16:48;24.86;59.15
65396;HTU21D;52004;45.136;39.010;2023-06-10T08:19:14;24.97;59.09
65396;HTU21D;52004;45.136;39.010;2023-06-10T08:21:40;25.04;59.07
65396;HTU21D;52004;45.136;39.010;2023-06-10T08:24:06;25.14;59.04
65396;HTU21D;52004;45.136;39.010;2023-06-10T08:26:32;25.22;58.97
65396;HTU21D;52004;45.136;39.010;2023-06-10T08:28:58;25.28;58.88
65396;HTU21D;52004;45.136;39.010;2023-06-10T08:31:24;25.33;58.90
65396;HTU21D;52004;45.136;39.010;2023-06-10T08:33:50;25.44;58.93
65396;HTU21D;52004;45.136;39.010;2023-06-10T08:36:16;25.54;58.83
65396;HTU21D;52004;45.136;39.010;2023-06-10T08:38:42;25.59;58.66
65396;HTU21D;52004;45.136;39.010;2023-06-10T08:41:08;25.62;58.70
65396;HTU21D;52004;45.136;39.010;2023-06-10T08:43:39;25.66;58.67
65396;HTU21D;52004;45.136;39.010;2023-06-10T08:46:08;25.73;58.63
65396;HTU21D;52004;45.136;39.010;2023-06-10T08:48:34;25.77;58.58
65396;HTU21D;52004;45.136;39.010;2023-06-10T08:51:01;25.84;58.63
65396;HTU21D;52004;45.136;39.010;2023-06-10T08:53:29;25.96;58.67
65396;HTU21D;52004;45.136;39.010;2023-06-10T08:55:56;0.00;58.57
65396;HTU21D;52004;45.136;39.010;2023-06-10T08:58:24;26.23;58.53
65396;HTU21D;52004;45.136;39.010;2023-06-10T09:00:50;26.39;58.60
65396;HTU21D;52004;45.136;39.010;2023-06-10T09:03:16;26.51;58.48
65396;HTU21D;52004;45.136;39.010;2023-06-10T09:05:43;26.60;58.31
65396;HTU21D;52004;45.136;39.010;2023-06-10T09:08:09;26.63;58.19
65396;HTU21D;52004;45.136;39.010;2023-06-10T09:10:35;26.63;58.09
65396;HTU21D;52004;45.136;39.010;2023-06-10T09:13:01;26.60;58.02
65396;HTU21D;52004;45.136;39.010;2023-06-10T09:15:27;26.56;57.95
65396;HTU21D;52004;45.136;39.010;2023-06-10T09:17:53;26.55;57.96
65396;HTU21D;52004;45.136;39.010;2023-06-10T09:20:19;0.00;58.03
65396;HTU21D;52004;45.136;39.010;2023-06-10T09:22:45;26.58;58.02
65396;HTU21D;52004;45.136;39.010;2023-06-10T09:25:12;0.00;57.96
65396;HTU21D;52004;45.136;39.010;2023-06-10T09:27:45;26.62;57.96
65396;HTU21D;52004;45.136;39.010;2023-06-10T09:30:29;26.64;57.87
65396;HTU21D;52004;45.136;39.010;2023-06-10T09:32:56;26.64;57.92
65396;HTU21D;52004;45.136;39.010;2023-06-10T09:35:26;26.64;57.93
65396;HTU21D;52004;45.136;39.010;2023-06-10T09:37:52;0.00;57.94
65396;HTU21D;52004;45.136;39.010;2023-06-10T09:40:19;26.76;57.90
65396;HTU21D;52004;45.136;39.010;2023-06-10T09:42:45;26.82;57.96
65396;HTU21D;52004;45.136;39.010;2023-06-10T09:45:11;26.87;57.86
65396;HTU21D;52004;45.136;39.010;2023-06-10T09:47:37;26.93;57.83
65396;HTU21D;52004;45.136;39.010;2023-06-10T09:50:03;26.96;57.80
65396;HTU21D;52004;45.136;39.010;2023-06-10T09:52:29;26.99;57.88
65396;HTU21D;52004;45.136;39.010;2023-06-10T09:54:59;27.12;58.01
65396;HTU21D;52004;45.136;39.010;2023-06-10T09:57:25;27.26;57.98
65396;HTU21D;52004;45.136;39.010;2023-06-10T09:59:55;27.38;57.85
65396;HTU21D;52004;45.136;39.010;2023-06-10T10:02:21;27.47;57.76
65396;HTU21D;52004;45.136;39.010;2023-06-10T10:04:47;27.58;57.89
65396;HTU21D;52004;45.136;39.010;2023-06-10T10:07:13;27.75;57.96
65396;HTU21D;52004;45.136;39.010;2023-06-10T10:09:40;27.98;57.89
65396;HTU21D;52004;45.136;39.010;2023-06-10T10:12:08;0.00;57.80
65396;HTU21D;52004;45.136;39.010;2023-06-10T10:14:35;28.30;57.70
65396;HTU21D;52004;45.136;39.010;2023-06-10T10:17:02;0.00;57.51
65396;HTU21D;52004;45.136;39.010;2023-06-10T10:19:31;28.49;57.43
65396;HTU21D;52004;45.136;39.010;2023-06-10T10:22:01;0.00;57.33
65396;HTU21D;52004;45.136;39.010;2023-06-10T10:24:36;28.59;57.43
65396;HTU21D;52004;45.136;39.010;2023-06-10T10:27:05;28.72;57.38
65396;HTU21D;52004;45.136;39.010;2023-06-10T10:29:35;28.75;57.09
65396;HTU21D;52004;45.136;39.010;2023-06-10T10:32:02;28.75;57.08
65396;HTU21D;52004;45.136;39.010;2023-06-10T10:37:13;28.72;56.89
65396;HTU21D;52004;45.136;39.010;2023-06-10T10:39:39;28.70;57.03
65396;HTU21D;52004;45.136;39.010;2023-06-10T10:42:05;28.74;57.02
65396;HTU21D;52004;45.136;39.010;2023-06-10T10:44:35;28.76;56.93
65396;HTU21D;52004;45.136;39.010;2023-06-10T10:47:02;28.76;56.92
65396;HTU21D;52004;45.136;39.010;2023-06-10T10:49:29;28.79;56.93
65396;HTU21D;52004;45.136;39.010;2023-06-10T10:52:00;28.79;56.81
65396;HTU21D;52004;45.136;39.010;2023-06-10T10:54:29;28.75;56.73
65396;HTU21D;52004;45.136;39.010;2023-06-10T10:57:17;28.71;56.66
65396;HTU21D;52004;45.136;39.010;2023-06-10T10:59:56;28.61;56.63
65396;HTU21D;52004;45.136;39.010;2023-06-10T11:02:35;28.57;56.73
65396;HTU21D;52004;45.136;39.010;2023-06-10T11:05:02;28.60;56.81
65396;HTU21D;52004;45.136;39.010;2023-06-10T11:07:33;28.64;56.76
65396;HTU21D;52004;45.136;39.010;2023-06-10T11:15:12;28.70;56.71
65396;HTU21D;52004;45.136;39.010;2023-06-10T11:23:07;28.69;56.51
65396;HTU21D;52004;45.136;39.010;2023-06-10T11:25:40;28.63;56.41
65396;HTU21D;52004;45.136;39.010;2023-06-10T11:28:27;28.57;56.48
65396;HTU21D;52004;45.136;39.010;2023-06-10T11:30:57;28.54;56.45
65396;HTU21D;52004;45.136;39.010;2023-06-10T11:33:23;28.50;56.42
65396;HTU21D;52004;45.136;39.010;2023-06-10T11:35:50;28.50;56.45
65396;HTU21D;52004;45.136;39.010;2023-06-10T11:38:16;28.54;56.58
65396;HTU21D;52004;45.136;39.010;2023-06-10T11:40:46;28.67;56.59
65396;HTU21D;52004;45.136;39.010;2023-06-10T11:43:13;28.76;56.37
65396;HTU21D;52004;45.136;39.010;2023-06-10T11:45:41;28.76;56.25
65396;HTU21D;52004;45.136;39.010;2023-06-10T11:48:07;28.75;56.23
65396;HTU21D;52004;45.136;39.010;2023-06-10T11:50:33;28.80;56.40
65396;HTU21D;52004;45.136;39.010;2023-06-10T11:52:59;28.91;56.47
65396;HTU21D;52004;45.136;39.010;2023-06-10T11:55:26;29.06;56.45
65396;HTU21D;52004;45.136;39.010;2023-06-10T11:57:52;29.20;56.35
65396;HTU21D;52004;45.136;39.010;2023-06-10T12:00:24;29.34;56.23
65396;HTU21D;52004;45.136;39.010;2023-06-10T12:03:08;29.47;56.11
65396;HTU21D;52004;45.136;39.010;2023-06-10T12:05:34;29.53;56.00
65396;HTU21D;52004;45.136;39.010;2023-06-10T12:08:09;29.60;56.01
65396;HTU21D;52004;45.136;39.010;2023-06-10T12:10:39;29.66;55.87
65396;HTU21D;52004;45.136;39.010;2023-06-10T12:13:06;29.74;55.91
65396;HTU21D;52004;45.136;39.010;2023-06-10T12:15:32;29.77;55.79
65396;HTU21D;52004;45.136;39.010;2023-06-10T12:17:58;29.80;55.77
65396;HTU21D;52004;45.136;39.010;2023-06-10T12:20:28;29.88;55.86
65396;HTU21D;52004;45.136;39.010;2023-06-10T12:22:54;29.97;55.74
65396;HTU21D;52004;45.136;39.010;2023-06-10T12:25:26;30.02;55.62
65396;HTU21D;52004;45.136;39.010;2023-06-10T12:27:53;0.00;55.57
65396;HTU21D;52004;45.136;39.010;2023-06-10T12:30:25;30.02;55.47
65396;HTU21D;52004;45.136;39.010;2023-06-10T12:32:52;0.00;55.48
65396;HTU21D;52004;45.136;39.010;2023-06-10T12:35:21;29.95;55.42
65396;HTU21D;52004;45.136;39.010;2023-06-10T12:40:29;29.95;55.50
65396;HTU21D;52004;45.136;39.010;2023-06-10T12:42:57;29.93;55.35
65396;HTU21D;52004;45.136;39.010;2023-06-10T12:45:36;29.93;55.40
65396;HTU21D;52004;45.136;39.010;2023-06-10T12:48:09;29.93;55.31
65396;HTU21D;52004;45.136;39.010;2023-06-10T12:50:35;0.00;55.29
65396;HTU21D;52004;45.136;39.010;2023-06-10T12:53:03;29.87;55.19
65396;HTU21D;52004;45.136;39.010;2023-06-10T12:55:29;29.79;55.08
65396;HTU21D;52004;45.136;39.010;2023-06-10T12:57:54;29.65;55.03
65396;HTU21D;52004;45.136;39.010;2023-06-10T13:00:22;29.52;54.97
65396;HTU21D;52004;45.136;39.010;2023-06-10T13:02:51;29.33;54.93
65396;HTU21D;52004;45.136;39.010;2023-06-10T13:05:18;29.16;55.00
65396;HTU21D;52004;45.136;39.010;2023-06-10T13:07:44;28.99;55.08
65396;HTU21D;52004;45.136;39.010;2023-06-10T13:10:10;28.80;55.17
65396;HTU21D;52004;45.136;39.010;2023-06-10T13:12:36;28.65;55.29
65396;HTU21D;52004;45.136;39.010;2023-06-10T13:15:02;28.48;55.33
65396;HTU21D;52004;45.136;39.010;2023-06-10T13:17:29;28.33;55.46
65396;HTU21D;52004;45.136;39.010;2023-06-10T13:19:55;0.00;55.52
65396;HTU21D;52004;45.136;39.010;2023-06-10T13:22:21;28.03;55.58
65396;HTU21D;52004;45.136;39.010;2023-06-10T13:24:47;27.85;55.67
65396;HTU21D;52004;45.136;39.010;2023-06-10T13:27:13;27.72;55.81
65396;HTU21D;52004;45.136;39.010;2023-06-10T13:29:41;27.60;55.80
65396;HTU21D;52004;45.136;39.010;2023-06-10T13:32:07;27.46;55.85
65396;HTU21D;52004;45.136;39.010;2023-06-10T13:34:33;27.30;55.88
65396;HTU21D;52004;45.136;39.010;2023-06-10T13:36:59;0.00;56.03
65396;HTU21D;52004;45.136;39.010;2023-06-10T13:39:25;26.97;56.17
65396;HTU21D;52004;45.136;39.010;2023-06-10T13:41:51;0.00;56.26
65396;HTU21D;52004;45.136;39.010;2023-06-10T13:44:17;26.72;56.35
65396;HTU21D;52004;45.136;39.010;2023-06-10T13:46:43;26.64;56.40
65396;HTU21D;52004;45.136;39.010;2023-06-10T13:49:09;26.58;56.41
65396;HTU21D;52004;45.136;39.010;2023-06-10T13:51:35;26.50;56.43
65396;HTU21D;52004;45.136;39.010;2023-06-10T13:54:01;26.34;56.52
65396;HTU21D;52004;45.136;39.010;2023-06-10T13:56:27;26.23;56.61
65396;HTU21D;52004;45.136;39.010;2023-06-10T13:58:53;0.00;56.68
65396;HTU21D;52004;45.136;39.010;2023-06-10T14:01:19;26.02;56.72
65396;HTU21D;52004;45.136;39.010;2023-06-10T14:03:45;25.91;56.81
65396;HTU21D;52004;45.136;39.010;2023-06-10T14:06:11;25.80;56.88
65396;HTU21D;52004;45.136;39.010;2023-06-10T14:08:44;0.00;56.98
65396;HTU21D;52004;45.136;39.010;2023-06-10T14:11:10;25.69;57.03
65396;HTU21D;52004;45.136;39.010;2023-06-10T14:13:36;25.68;57.05
65396;HTU21D;52004;45.136;39.010;2023-06-10T14:16:04;25.65;57.08
65396;HTU21D;52004;45.136;39.010;2023-06-10T14:18:30;25.63;57.18
65396;HTU21D;52004;45.136;39.010;2023-06-10T14:20:56;0.00;57.26
65396;HTU21D;52004;45.136;39.010;2023-06-10T14:23:22;25.58;57.32
65396;HTU21D;52004;45.136;39.010;2023-06-10T14:25:50;25.56;57.35
65396;HTU21D;52004;45.136;39.010;2023-06-10T14:28:15;25.53;57.41
65396;HTU21D;52004;45.136;39.010;2023-06-10T14:30:41;25.48;57.49
65396;HTU21D;52004;45.136;39.010;2023-06-10T14:33:07;25.42;57.59
65396;HTU21D;52004;45.136;39.010;2023-06-10T14:35:33;25.32;57.77
65396;HTU21D;52004;45.136;39.010;2023-06-10T14:37:59;25.23;57.93
65396;HTU21D;52004;45.136;39.010;2023-06-10T14:40:25;25.17;58.08
65396;HTU21D;52004;45.136;39.010;2023-06-10T14:42:57;25.12;58.16
65396;HTU21D;52004;45.136;39.010;2023-06-10T14:45:23;25.04;58.28
65396;HTU21D;52004;45.136;39.010;2023-06-10T14:47:50;25.00;58.38
65396;HTU21D;52004;45.136;39.010;2023-06-10T14:50:16;24.93;58.48
65396;HTU21D;52004;45.136;39.010;2023-06-10T14:52:42;0.00;58.57
65396;HTU21D;52004;45.136;39.010;2023-06-10T14:55:08;24.84;58.63
65396;HTU21D;52004;45.136;39.010;2023-06-10T14:57:34;24.80;58.72
65396;HTU21D;52004;45.136;39.010;2023-06-10T15:00:00;24.79;58.78
65396;HTU21D;52004;45.136;39.010;2023-06-10T15:02:26;0.00;58.83
65396;HTU21D;52004;45.136;39.010;2023-06-10T15:04:52;24.78;58.88
65396;HTU21D;52004;45.136;39.010;2023-06-10T15:07:18;24.78;58.91
65396;HTU21D;52004;45.136;39.010;2023-06-10T15:09:44;0.00;58.93
65396;HTU21D;52004;45.136;39.010;2023-06-10T15:12:10;24.76;58.92
65396;HTU21D;52004;45.136;39.010;2023-06-10T15:14:36;24.74;59.01
65396;HTU21D;52004;45.136;39.010;2023-06-10T15:17:02;24.71;59.09
65396;HTU21D;52004;45.136;39.010;2023-06-10T15:19:28;24.66;59.13
65396;HTU21D;52004;45.136;39.010;2023-06-10T15:21:54;24.61;59.22
65396;HTU21D;52004;45.136;39.010;2023-06-10T15:24:20;24.57;59.30